Time;durP1;ratioP1;P1;durP2;ratioP2;P2;SDS_P1;SDS_P2;PMS_P1;PMS_P2;Temp;Humidity;BMP_temperature;BMP_pressure;BME280_temperature;BME280_humidity;BME280_pressure;Samples;Min_cycle;Max_cycle;Signal;HPM_P1;HPM_P2
2023/02/18 00:00:08;;;;;;;14.48;1.38;;;;;;;4.20;52.76;101828.03;4965433;28;20039;-71
2023/02/18 00:02:34;;;;;;;13.07;1.30;;;;;;;4.23;52.56;101827.22;4963951;28;20034;-72
2023/02/18 00:04:59;;;;;;;14.32;1.30;;;;;;;4.48;52.01;101824.66;4963045;28;20046;-72
2023/02/18 00:07:25;;;;;;;18.50;1.52;;;;;;;4.73;51.36;101833.28;4957064;28;20038;-71
2023/02/18 00:09:50;;;;;;;21.70;2.33;;;;;;;4.51;51.83;101825.50;4955481;28;20046;-72
2023/02/18 00:12:16;;;;;;;18.52;1.92;;;;;;;4.38;52.12;101827.22;4962188;28;20525;-72
2023/02/18 00:14:41;;;;;;;15.90;1.48;;;;;;;4.11;52.73;101822.00;4951710;28;20046;-71
2023/02/18 00:17:06;;;;;;;18.67;1.90;;;;;;;4.24;52.26;101826.34;4962563;28;20080;-79
2023/02/18 00:19:32;;;;;;;12.95;1.48;;;;;;;4.13;52.83;101821.13;4971460;28;20105;-79
2023/02/18 00:21:57;;;;;;;19.60;1.10;;;;;;;4.24;52.47;101825.47;4970397;28;20034;-79
2023/02/18 00:24:23;;;;;;;9.10;1.58;;;;;;;4.00;53.37;101817.66;4967102;28;20133;-79
2023/02/18 00:26:51;;;;;;;15.77;2.30;;;;;;;4.69;51.32;101827.22;4967712;28;20086;-77
2023/02/18 00:29:17;;;;;;;12.27;1.80;;;;;;;4.39;52.24;101821.19;4976088;28;20043;-78
2023/02/18 00:31:43;;;;;;;14.75;1.65;;;;;;;4.40;51.92;101817.72;4967101;28;20320;-72
2023/02/18 00:34:10;;;;;;;10.75;1.27;;;;;;;4.59;51.22;101821.19;4956995;28;20047;-72
2023/02/18 00:36:35;;;;;;;19.92;2.67;;;;;;;4.21;52.27;101816.00;4968698;28;20038;-73
2023/02/18 00:39:07;;;;;;;19.85;1.17;;;;;;;4.44;51.58;101818.59;4963414;28;20041;-73
2023/02/18 00:41:33;;;;;;;11.47;1.40;;;;;;;4.52;51.53;101806.53;4962731;28;20030;-72
2023/02/18 00:43:59;;;;;;;12.20;1.42;;;;;;;4.55;51.01;101805.66;4957075;28;20786;-72
2023/02/18 00:46:25;;;;;;;15.73;2.28;;;;;;;4.42;51.35;101807.38;4972369;28;20058;-73
2023/02/18 00:48:53;;;;;;;12.10;1.35;;;;;;;4.62;51.02;101792.72;4944664;28;20129;-72
2023/02/18 00:51:18;;;;;;;33.30;2.55;;;;;;;4.57;51.11;101794.44;4957769;28;20030;-71
2023/02/18 00:53:47;;;;;;;8.65;1.38;;;;;;;4.59;50.82;101799.63;4953732;28;20697;-72
2023/02/18 00:56:12;;;;;;;19.27;1.35;;;;;;;4.57;50.62;101788.41;4953596;28;20439;-72
2023/02/18 00:58:40;;;;;;;14.07;1.08;;;;;;;4.81;50.24;101783.22;4943503;28;20129;-72
2023/02/18 01:01:08;;;;;;;8.88;0.63;;;;;;;4.53;51.06;101784.94;4959505;28;20041;-69
2023/02/18 01:03:39;;;;;;;12.82;1.35;;;;;;;4.16;52.25;101777.19;4952462;28;20038;-73
2023/02/18 01:06:06;;;;;;;11.18;1.42;;;;;;;4.33;51.58;101784.09;4958157;28;20030;-74
2023/02/18 01:08:33;;;;;;;14.27;1.45;;;;;;;4.21;52.21;101782.34;4943396;28;20118;-74
2023/02/18 01:10:59;;;;;;;22.98;1.17;;;;;;;4.70;50.78;101779.78;4957793;28;20688;-73
2023/02/18 01:13:26;;;;;;;8.70;1.50;;;;;;;4.49;51.28;101769.41;4936325;28;20031;-74
2023/02/18 01:15:52;;;;;;;14.27;1.35;;;;;;;4.79;50.62;101764.22;4959258;28;20114;-74
2023/02/18 01:18:19;;;;;;;13.20;1.58;;;;;;;4.82;50.41;101774.56;4955600;28;20038;-74
2023/02/18 01:20:45;;;;;;;6.75;1.02;;;;;;;4.45;51.54;101770.28;4969634;28;20026;-74
2023/02/18 01:23:12;;;;;;;12.40;1.10;;;;;;;4.35;52.02;101777.19;4957261;28;20041;-74
2023/02/18 01:25:38;;;;;;;14.40;0.70;;;;;;;4.82;50.65;101778.88;4956606;28;20053;-73
2023/02/18 01:28:08;;;;;;;18.50;1.13;;;;;;;4.41;51.41;101772.88;4940763;28;20112;-73
2023/02/18 01:30:34;;;;;;;17.85;1.27;;;;;;;4.50;51.11;101771.13;4953950;28;20054;-72
2023/02/18 01:33:00;;;;;;;9.85;1.65;;;;;;;4.51;50.93;101773.72;4958263;28;20670;-73
2023/02/18 01:35:25;;;;;;;13.23;1.15;;;;;;;4.29;51.18;101782.34;4955346;28;20035;-73
2023/02/18 01:37:53;;;;;;;10.93;0.93;;;;;;;4.24;51.54;101779.75;4967556;28;20113;-72
2023/02/18 01:40:23;;;;;;;10.77;0.55;;;;;;;4.33;51.66;101779.75;4959369;28;20050;-72
2023/02/18 01:42:49;;;;;;;6.25;0.80;;;;;;;4.42;50.92;101791.84;4968902;28;20042;-71
2023/02/18 01:45:34;;;;;;;5.28;1.15;;;;;;;4.24;51.21;101779.75;4959588;28;20118;-73
2023/02/18 01:48:55;;;;;;;9.68;0.85;;;;;;;4.17;51.84;101778.03;4954383;28;20166;-68
2023/02/18 01:51:26;;;;;;;11.70;1.20;;;;;;;4.49;50.99;101779.78;4948197;28;20051;-68
2023/02/18 01:54:01;;;;;;;7.78;0.70;;;;;;;4.28;51.99;101783.22;4953690;28;21049;-67
2023/02/18 01:56:42;;;;;;;15.82;1.05;;;;;;;3.62;53.48;101776.16;4951008;28;20050;-66
2023/02/18 01:59:12;;;;;;;6.95;0.57;;;;;;;4.36;51.57;101773.72;4944593;28;20046;-68
2023/02/18 02:01:41;;;;;;;5.50;0.70;;;;;;;4.07;52.39;101778.88;4952169;28;20030;-68
2023/02/18 02:04:07;;;;;;;5.85;0.52;;;;;;;4.03;52.83;101775.44;4954965;28;20519;-67
2023/02/18 02:06:32;;;;;;;7.47;1.67;;;;;;;4.46;51.57;101782.38;4951915;28;20345;-69
2023/02/18 02:09:02;;;;;;;8.73;0.85;;;;;;;4.12;52.48;101782.31;4939539;28;20042;-67
2023/02/18 02:11:39;;;;;;;12.77;0.80;;;;;;;4.12;52.59;101779.72;4942342;28;20034;-64
2023/02/18 02:14:40;;;;;;;11.93;0.63;;;;;;;4.45;52.09;101784.06;4955773;28;20507;-66
2023/02/18 02:17:15;;;;;;;20.65;0.70;;;;;;;4.09;52.89;101759.03;4957260;28;20038;-68
2023/02/18 02:20:18;;;;;;;8.60;0.80;;;;;;;3.73;53.76;101750.34;4956927;28;20034;-68
2023/02/18 02:23:22;;;;;;;9.82;0.80;;;;;;;4.33;52.64;101737.50;4984123;28;20066;-67
2023/02/18 02:26:07;;;;;;;16.75;0.75;;;;;;;4.59;51.99;101729.72;4954451;28;20061;-68
2023/02/18 02:29:04;;;;;;;11.05;0.70;;;;;;;4.88;50.97;101716.75;4967825;28;20234;-70
2023/02/18 02:31:45;;;;;;;10.57;1.00;;;;;;;4.64;51.80;101717.63;4954020;28;20050;-68
2023/02/18 02:34:16;;;;;;;14.48;1.42;;;;;;;4.48;52.44;101721.09;4955107;28;20397;-71
2023/02/18 02:36:56;;;;;;;13.02;0.98;;;;;;;4.49;52.39;101733.16;4952366;28;20132;-72
2023/02/18 02:39:32;;;;;;;6.55;0.55;;;;;;;4.66;51.98;101721.06;4949294;28;20130;-67
2023/02/18 02:42:14;;;;;;;9.93;0.88;;;;;;;4.98;50.94;101707.19;4960338;28;20065;-68
2023/02/18 02:45:03;;;;;;;9.88;0.98;;;;;;;4.48;52.15;101708.16;4940071;28;20039;-68
2023/02/18 02:47:36;;;;;;;12.07;0.93;;;;;;;4.73;51.84;101709.81;4956445;28;20030;-68
2023/02/18 02:50:07;;;;;;;4.72;0.60;;;;;;;4.35;52.53;101707.31;4962061;28;20042;-70
2023/02/18 02:52:38;;;;;;;10.32;1.40;;;;;;;4.58;52.01;101704.69;4974351;28;20030;-70
2023/02/18 02:55:08;;;;;;;13.30;0.57;;;;;;;4.34;52.39;101706.44;4958909;28;20034;-69
2023/02/18 02:57:33;;;;;;;11.07;0.50;;;;;;;4.89;51.61;101692.53;4964401;28;20034;-70
2023/02/18 03:00:10;;;;;;;6.63;0.80;;;;;;;4.77;51.40;101698.59;4964725;28;20057;-70
2023/02/18 03:02:51;;;;;;;8.55;1.05;;;;;;;4.86;51.58;101700.31;4947734;28;20492;-74
2023/02/18 03:05:42;;;;;;;6.85;0.60;;;;;;;5.08;50.98;101697.66;4956779;28;20125;-74
2023/02/18 03:08:27;;;;;;;31.77;1.43;;;;;;;4.74;51.95;101696.00;4951940;28;20372;-71
2023/02/18 03:11:07;;;;;;;6.13;0.77;;;;;;;4.75;51.50;101684.78;4961864;28;20102;-72
2023/02/18 03:14:02;;;;;;;10.32;0.95;;;;;;;4.90;51.16;101683.94;4958838;28;20046;-71
2023/02/18 03:16:49;;;;;;;9.80;1.13;;;;;;;4.78;50.97;101677.00;4957326;28;20054;-67
2023/02/18 03:19:18;;;;;;;4.10;0.75;;;;;;;4.84;51.24;101671.81;4956935;28;20074;-68
2023/02/18 03:21:43;;;;;;;14.85;0.77;;;;;;;4.89;50.93;101677.00;4986122;28;20071;-66
2023/02/18 03:24:15;;;;;;;13.52;1.17;;;;;;;4.73;51.56;101680.47;4957392;28;20157;-68
2023/02/18 03:26:51;;;;;;;11.00;0.82;;;;;;;4.95;50.93;101666.63;4970389;28;20043;-67
2023/02/18 03:29:18;;;;;;;20.05;1.20;;;;;;;5.02;50.74;101657.09;4970308;28;20049;-69
2023/02/18 03:31:51;;;;;;;10.23;0.60;;;;;;;5.30;50.14;101656.97;4955278;28;20030;-70
2023/02/18 03:34:21;;;;;;;9.15;0.52;;;;;;;5.12;49.96;101653.59;4964066;28;20730;-69
2023/02/18 03:36:47;;;;;;;10.07;0.60;;;;;;;5.18;50.49;101638.00;4963994;28;20041;-69
2023/02/18 03:39:18;;;;;;;7.60;1.67;;;;;;;5.17;50.23;101636.31;4944980;28;20034;-70
2023/02/18 03:41:45;;;;;;;9.68;0.65;;;;;;;5.10;50.29;101631.13;4972949;28;20274;-69
2023/02/18 03:44:12;;;;;;;12.23;0.60;;;;;;;4.78;50.93;101624.34;4946088;28;20043;-69
2023/02/18 03:46:42;;;;;;;6.45;0.90;;;;;;;5.17;50.24;101615.56;4955682;28;20109;-69
2023/02/18 03:49:10;;;;;;;10.95;0.70;;;;;;;5.10;50.25;101608.72;4940097;28;20043;-67
2023/02/18 03:51:36;;;;;;;6.82;0.47;;;;;;;4.95;51.26;101609.63;4959519;28;20041;-68
2023/02/18 03:54:01;;;;;;;8.15;0.45;;;;;;;5.07;51.31;101608.69;4954743;28;20408;-68
2023/02/18 03:56:27;;;;;;;18.90;1.45;;;;;;;4.98;51.84;101613.94;4953833;28;20034;-66
2023/02/18 03:58:52;;;;;;;10.05;0.60;;;;;;;5.05;51.60;101613.88;4955167;28;20293;-67
2023/02/18 04:01:17;;;;;;;14.57;0.73;;;;;;;5.11;51.29;101618.19;4956259;28;20245;-67
2023/02/18 04:03:43;;;;;;;5.57;1.25;;;;;;;5.04;51.90;101609.59;4957771;28;20503;-70
2023/02/18 04:06:09;;;;;;;5.38;0.57;;;;;;;4.97;52.29;101613.09;4960862;28;20613;-66
2023/02/18 04:08:34;;;;;;;5.45;0.43;;;;;;;4.91;52.50;101617.44;4955598;28;20053;-72
2023/02/18 04:11:00;;;;;;;9.48;1.33;;;;;;;5.01;52.26;101624.28;4958558;28;20108;-74
2023/02/18 04:13:26;;;;;;;11.23;1.13;;;;;;;4.95;52.50;101616.56;4956562;28;20122;-74
2023/02/18 04:15:52;;;;;;;6.70;1.00;;;;;;;4.93;52.68;101605.34;4969762;28;20058;-71
2023/02/18 04:18:18;;;;;;;9.98;0.60;;;;;;;4.88;53.04;101614.84;4954616;28;20569;-68
2023/02/18 04:20:45;;;;;;;7.03;1.08;;;;;;;4.91;53.12;101602.75;4956008;28;20125;-68
2023/02/18 04:23:11;;;;;;;12.38;0.82;;;;;;;4.82;53.77;101602.75;4967121;28;20046;-73
2023/02/18 04:25:36;;;;;;;13.50;0.80;;;;;;;4.80;53.58;101594.13;4955857;28;20030;-72
2023/02/18 04:28:02;;;;;;;9.77;0.70;;;;;;;4.77;53.82;101584.66;4960621;28;20658;-69
2023/02/18 04:30:28;;;;;;;5.68;0.40;;;;;;;4.87;53.57;101579.41;4956183;28;20045;-66
2023/02/18 04:32:53;;;;;;;3.30;0.90;;;;;;;4.95;53.01;101572.50;4955162;28;20062;-65
2023/02/18 04:35:18;;;;;;;10.30;0.60;;;;;;;4.90;53.70;101575.13;4957368;28;20046;-68
2023/02/18 04:37:44;;;;;;;5.85;0.68;;;;;;;4.88;53.48;101565.63;4957500;28;20034;-70
2023/02/18 04:40:10;;;;;;;4.40;0.70;;;;;;;4.89;53.54;101564.75;4954463;28;20523;-70
2023/02/18 04:42:36;;;;;;;3.97;0.65;;;;;;;4.89;53.63;101562.16;4956912;28;20169;-70
2023/02/18 04:45:01;;;;;;;9.55;0.98;;;;;;;4.87;53.72;101553.50;4955201;28;20038;-71
2023/02/18 04:47:27;;;;;;;5.72;1.05;;;;;;;4.84;53.74;101557.84;4958087;28;20037;-71
2023/02/18 04:49:54;;;;;;;5.22;0.52;;;;;;;4.87;53.89;101545.75;4953358;28;20147;-71
2023/02/18 04:52:20;;;;;;;10.98;0.55;;;;;;;4.87;53.74;101553.50;4963344;28;20138;-71
2023/02/18 04:54:45;;;;;;;7.15;0.50;;;;;;;4.65;54.43;101553.59;4952722;28;20065;-70
2023/02/18 04:57:11;;;;;;;9.48;0.90;;;;;;;4.53;54.75;101549.34;4955804;28;20590;-65
2023/02/18 04:59:37;;;;;;;8.77;0.55;;;;;;;4.54;55.12;101548.50;4982400;28;20046;-71
2023/02/18 05:02:03;;;;;;;10.23;0.70;;;;;;;4.38;55.46;101545.06;4956906;28;20073;-71
2023/02/18 05:04:29;;;;;;;11.70;0.85;;;;;;;4.58;55.08;101531.19;4954083;28;20171;-67
2023/02/18 05:06:54;;;;;;;17.40;1.45;;;;;;;4.29;55.80;101529.59;4954171;28;20089;-66
2023/02/18 05:09:20;;;;;;;8.98;0.88;;;;;;;4.41;55.29;101521.78;4956901;28;20074;-68
2023/02/18 05:11:46;;;;;;;7.93;0.93;;;;;;;4.29;55.90;101515.78;4954182;28;20302;-70
2023/02/18 05:14:12;;;;;;;5.93;0.40;;;;;;;4.31;55.83;101507.16;4957688;28;20042;-71
2023/02/18 05:16:37;;;;;;;3.30;0.93;;;;;;;4.32;55.69;101498.53;4955608;28;20574;-67
2023/02/18 05:19:03;;;;;;;5.57;0.77;;;;;;;3.99;56.79;101500.34;4955891;28;20093;-67
2023/02/18 05:21:29;;;;;;;11.35;1.02;;;;;;;4.02;57.20;101487.41;4956785;28;20621;-66
2023/02/18 05:23:54;;;;;;;6.47;1.20;;;;;;;3.77;57.19;101480.59;4954959;28;20042;-71
2023/02/18 05:26:19;;;;;;;8.98;0.88;;;;;;;4.02;57.17;101474.47;4955890;28;20122;-72
2023/02/18 05:28:45;;;;;;;8.05;0.75;;;;;;;4.24;56.45;101458.88;4953928;28;20129;-72
2023/02/18 05:31:10;;;;;;;9.32;1.27;;;;;;;4.31;56.65;101450.22;4958365;28;21726;-71
2023/02/18 05:33:36;;;;;;;13.93;1.40;;;;;;;4.30;56.60;101458.84;4955056;28;20046;-70
2023/02/18 05:36:01;;;;;;;10.05;1.40;;;;;;;4.34;56.30;101449.34;4955937;28;20045;-71
2023/02/18 05:38:27;;;;;;;10.57;1.27;;;;;;;4.20;57.01;101457.16;4961021;28;20642;-69
2023/02/18 05:40:53;;;;;;;10.70;0.85;;;;;;;4.34;56.92;101450.22;4937595;28;20066;-70
2023/02/18 05:43:19;;;;;;;8.30;1.13;;;;;;;4.15;57.51;101439.06;4956585;28;20038;-70
2023/02/18 05:45:44;;;;;;;10.88;1.17;;;;;;;4.25;57.65;101428.69;4954619;28;20041;-73
2023/02/18 05:48:10;;;;;;;7.35;1.27;;;;;;;4.45;56.44;101405.28;4956024;28;20038;-72
2023/02/18 05:50:35;;;;;;;10.75;1.15;;;;;;;4.47;56.55;101403.53;4956081;28;20042;-75
2023/02/18 05:53:00;;;;;;;8.50;1.35;;;;;;;4.21;57.72;101400.25;4970949;28;20037;-71
2023/02/18 05:55:26;;;;;;;6.35;1.73;;;;;;;4.51;56.72;101384.53;4958494;28;20616;-70
2023/02/18 05:57:52;;;;;;;7.40;0.70;;;;;;;4.35;56.67;101384.63;4959375;28;20495;-69
2023/02/18 06:00:17;;;;;;;7.18;1.00;;;;;;;4.53;56.83;101375.03;4958609;28;20057;-68
2023/02/18 06:02:43;;;;;;;9.05;1.33;;;;;;;4.51;57.01;101384.53;4953387;28;20035;-71
2023/02/18 06:05:09;;;;;;;12.32;1.85;;;;;;;4.24;57.94;101398.50;4955394;28;20531;-74
2023/02/18 06:07:35;;;;;;;9.23;1.05;;;;;;;4.54;57.47;101376.75;4951637;28;20041;-66
2023/02/18 06:10:01;;;;;;;7.35;1.58;;;;;;;4.57;57.40;101376.75;4954987;28;20587;-71
2023/02/18 06:12:26;;;;;;;13.05;1.13;;;;;;;4.37;58.14;101382.91;4954237;28;20381;-68
2023/02/18 06:14:52;;;;;;;18.40;1.58;;;;;;;4.13;58.96;101381.31;4957246;28;20614;-69
2023/02/18 06:17:17;;;;;;;5.90;0.75;;;;;;;4.58;57.99;101370.69;4953139;28;20491;-66
2023/02/18 06:19:44;;;;;;;5.00;1.58;;;;;;;4.72;57.66;101352.44;4953858;28;20053;-71
2023/02/18 06:22:10;;;;;;;9.98;2.00;;;;;;;4.75;57.53;101348.13;4955952;28;20037;-74
2023/02/18 06:24:36;;;;;;;5.13;1.23;;;;;;;4.85;57.32;101333.34;4941675;28;20412;-68
2023/02/18 06:27:02;;;;;;;7.25;2.28;;;;;;;4.78;57.87;101342.91;4956283;28;20030;-71
2023/02/18 06:29:31;;;;;;;5.40;1.42;;;;;;;4.88;57.62;101345.44;4952793;28;20039;-70
2023/02/18 06:31:57;;;;;;;8.30;1.83;;;;;;;4.97;57.46;101348.84;4955696;28;20110;-70
2023/02/18 06:34:23;;;;;;;13.10;2.67;;;;;;;4.87;57.86;101339.38;4954454;28;20049;-68
2023/02/18 06:36:49;;;;;;;8.77;1.58;;;;;;;4.69;58.57;101322.25;4954099;28;20034;-75
2023/02/18 06:39:14;;;;;;;11.20;2.80;;;;;;;4.88;58.28;101333.38;4952814;28;20404;-72
2023/02/18 06:41:40;;;;;;;12.95;2.15;;;;;;;4.93;58.26;101320.38;4954593;28;20038;-67
2023/02/18 06:44:06;;;;;;;5.45;1.85;;;;;;;4.99;57.70;101312.56;4954583;28;20043;-74
2023/02/18 06:46:32;;;;;;;4.85;2.33;;;;;;;5.08;57.58;101316.75;4952401;28;20520;-73
2023/02/18 06:48:57;;;;;;;10.10;2.25;;;;;;;4.88;58.27;101314.34;4955532;28;20179;-68
2023/02/18 06:51:23;;;;;;;6.97;2.88;;;;;;;5.04;58.04;101282.28;4952500;28;20081;-67
2023/02/18 06:53:49;;;;;;;9.93;3.75;;;;;;;5.09;57.89;101271.84;4953259;28;20527;-72
2023/02/18 06:56:15;;;;;;;7.57;2.70;;;;;;;5.01;57.82;101265.03;4953191;28;20034;-72
2023/02/18 06:58:40;;;;;;;9.48;2.85;;;;;;;4.83;58.42;101265.16;4959890;28;20121;-72
2023/02/18 07:01:06;;;;;;;8.25;3.30;;;;;;;4.92;58.20;101262.53;4954476;28;20022;-70
2023/02/18 07:03:31;;;;;;;6.85;2.55;;;;;;;5.01;58.36;101256.38;4954391;28;20088;-72
2023/02/18 07:05:57;;;;;;;9.60;3.78;;;;;;;4.81;58.95;101252.25;4939577;28;20173;-72
2023/02/18 07:08:22;;;;;;;9.40;3.83;;;;;;;5.05;58.48;101242.53;4951607;28;20034;-67
2023/02/18 07:10:48;;;;;;;9.93;3.05;;;;;;;4.89;58.89;101238.38;4953641;28;20512;-71
2023/02/18 07:13:14;;;;;;;13.15;4.05;;;;;;;4.96;59.23;101240.03;4952466;28;20039;-69
2023/02/18 07:15:40;;;;;;;8.90;3.70;;;;;;;4.81;59.73;101234.13;4953826;28;20034;-69
2023/02/18 07:18:05;;;;;;;7.55;3.30;;;;;;;5.04;59.03;101226.13;4954148;28;20038;-77
2023/02/18 07:20:31;;;;;;;10.73;3.72;;;;;;;5.00;59.37;101208.03;4956957;28;20447;-68
2023/02/18 07:22:57;;;;;;;9.60;4.35;;;;;;;4.93;59.56;101209.00;4954450;28;20039;-68
2023/02/18 07:25:25;;;;;;;10.02;4.10;;;;;;;4.93;59.95;101198.63;4958737;28;20093;-66
2023/02/18 07:27:51;;;;;;;10.32;4.82;;;;;;;4.96;59.78;101186.47;4956671;28;20039;-69
2023/02/18 07:30:18;;;;;;;8.55;3.88;;;;;;;5.28;58.92;101169.72;4955404;28;20423;-68
2023/02/18 07:32:44;;;;;;;11.05;4.07;;;;;;;5.25;58.89;101161.94;4956963;28;20038;-68
2023/02/18 07:35:13;;;;;;;7.40;4.72;;;;;;;5.35;58.66;101155.78;4955216;28;20077;-68
2023/02/18 07:37:39;;;;;;;4.93;3.53;;;;;;;5.34;59.25;101160.97;4955906;28;20034;-69
2023/02/18 07:40:05;;;;;;;9.27;4.50;;;;;;;5.39;58.32;101159.16;4954014;28;20042;-68
2023/02/18 07:42:32;;;;;;;7.30;3.92;;;;;;;5.40;58.36;101155.72;4957525;28;20826;-69
2023/02/18 07:44:58;;;;;;;5.45;3.78;;;;;;;5.31;58.53;101146.31;4987387;28;20050;-67
2023/02/18 07:47:24;;;;;;;7.78;4.28;;;;;;;5.12;59.55;101147.44;4955380;28;20058;-68
2023/02/18 07:49:49;;;;;;;6.72;4.35;;;;;;;5.29;59.10;101142.03;4952964;28;20089;-68
2023/02/18 07:52:15;;;;;;;7.03;4.40;;;;;;;5.42;58.72;101134.06;4956786;28;20035;-69
2023/02/18 07:54:41;;;;;;;5.75;3.85;;;;;;;5.40;58.51;101124.59;4954862;28;20085;-68
2023/02/18 07:57:07;;;;;;;5.22;3.63;;;;;;;5.33;58.57;101133.34;4957107;28;20039;-66
2023/02/18 07:59:32;;;;;;;5.07;4.00;;;;;;;5.11;59.59;101128.44;4960911;28;20046;-65
2023/02/18 08:01:58;;;;;;;9.00;3.70;;;;;;;5.00;59.99;101127.75;4958167;28;20030;-67
2023/02/18 08:04:23;;;;;;;4.22;3.40;;;;;;;5.12;59.91;101118.94;4956542;28;20400;-68
2023/02/18 08:06:49;;;;;;;5.57;4.15;;;;;;;4.95;60.52;101111.41;4956915;28;20109;-66
2023/02/18 08:09:16;;;;;;;9.05;4.20;;;;;;;5.39;59.36;101105.63;4955354;28;20049;-69
2023/02/18 08:11:42;;;;;;;7.00;3.75;;;;;;;4.89;60.81;101104.56;4956835;28;20978;-67
2023/02/18 08:14:07;;;;;;;6.53;3.88;;;;;;;4.51;62.19;101097.22;4957793;28;20042;-67
2023/02/18 08:16:33;;;;;;;5.47;3.30;;;;;;;4.73;62.23;101098.69;4951675;28;20069;-70
2023/02/18 08:19:00;;;;;;;7.75;4.30;;;;;;;5.18;61.12;101088.63;4956764;28;20073;-69
2023/02/18 08:21:26;;;;;;;6.55;4.18;;;;;;;5.02;62.12;101075.03;4956798;28;20053;-71
2023/02/18 08:23:52;;;;;;;5.72;4.00;;;;;;;5.07;62.38;101087.06;4956297;28;20050;-70
2023/02/18 08:26:19;;;;;;;8.15;4.53;;;;;;;5.25;62.28;101074.69;4971747;28;20153;-70
2023/02/18 08:28:45;;;;;;;6.78;4.28;;;;;;;5.53;61.75;101063.91;4954644;28;20053;-69
2023/02/18 08:31:21;;;;;;;7.40;3.80;;;;;;;5.24;63.75;101067.81;4956739;28;20735;-70
2023/02/18 08:33:48;;;;;;;9.40;4.45;;;;;;;5.36;63.48;101063.31;4969126;28;20097;-71
2023/02/18 08:36:13;;;;;;;8.55;4.50;;;;;;;5.35;64.42;101059.03;4949224;28;20636;-70
2023/02/18 08:38:39;;;;;;;7.55;3.28;;;;;;;5.50;64.41;101052.72;4952140;28;20042;-71
2023/02/18 08:41:06;;;;;;;9.82;4.75;;;;;;;5.62;63.81;101053.41;4972844;28;20079;-71
2023/02/18 08:43:32;;;;;;;5.68;2.50;;;;;;;5.57;65.11;101037.06;4951718;28;20533;-71
2023/02/18 08:45:58;;;;;;;5.53;2.13;;;;;;;5.86;64.52;101048.69;4953940;28;20038;-70
2023/02/18 08:48:24;;;;;;;6.63;3.08;;;;;;;5.67;65.42;101046.38;4954180;28;20132;-69
2023/02/18 08:50:49;;;;;;;4.47;2.33;;;;;;;5.46;66.71;101047.59;4954096;28;20698;-70
2023/02/18 08:53:15;;;;;;;6.93;3.40;;;;;;;5.91;65.09;101054.63;4954471;28;20039;-67
2023/02/18 08:55:41;;;;;;;5.90;2.67;;;;;;;5.75;65.71;101042.78;4970056;28;20081;-68
2023/02/18 08:58:07;;;;;;;6.53;2.38;;;;;;;5.79;66.15;101042.75;4973929;28;20034;-69
2023/02/18 09:00:32;;;;;;;7.90;3.63;;;;;;;5.71;66.27;101031.63;4951058;28;20087;-71
2023/02/18 09:02:58;;;;;;;7.18;3.00;;;;;;;5.99;65.80;101031.13;4957825;28;20037;-70
2023/02/18 09:05:23;;;;;;;10.77;3.40;;;;;;;5.85;65.98;101028.81;4957938;28;20771;-71
2023/02/18 09:07:49;;;;;;;6.38;4.00;;;;;;;6.03;65.85;101028.47;4952611;28;20047;-69
2023/02/18 09:10:15;;;;;;;7.78;3.08;;;;;;;5.53;67.17;101017.25;4952525;28;20371;-70
2023/02/18 09:12:40;;;;;;;7.30;3.15;;;;;;;5.96;65.82;101016.50;4951141;28;20526;-69
2023/02/18 09:15:06;;;;;;;6.00;2.83;;;;;;;6.12;65.16;101016.19;4954500;28;20038;-72
2023/02/18 09:17:32;;;;;;;10.63;2.63;;;;;;;6.18;64.99;101010.91;4951654;28;20031;-69
2023/02/18 09:19:57;;;;;;;9.10;3.83;;;;;;;5.98;65.86;101030.28;4953100;28;20045;-72
2023/02/18 09:22:23;;;;;;;4.93;2.30;;;;;;;6.03;65.80;101041.44;4951163;28;20137;-71
2023/02/18 09:24:49;;;;;;;4.80;2.17;;;;;;;5.60;66.79;101013.66;4951023;28;20043;-68
2023/02/18 09:27:14;;;;;;;4.82;2.17;;;;;;;5.74;66.83;101015.16;4955496;28;20479;-70
2023/02/18 09:29:40;;;;;;;4.70;2.15;;;;;;;5.72;66.35;101027.31;4951301;28;20042;-69
2023/02/18 09:32:07;;;;;;;3.63;1.63;;;;;;;6.07;65.30;101037.91;4955070;28;20058;-71
2023/02/18 09:34:33;;;;;;;3.47;1.83;;;;;;;5.62;66.71;101042.16;4949091;28;20058;-71
2023/02/18 09:36:59;;;;;;;2.95;1.23;;;;;;;6.12;65.17;101029.19;4953225;28;20042;-69
2023/02/18 09:39:25;;;;;;;4.75;1.50;;;;;;;5.89;66.00;101030.47;4950244;28;20612;-68
2023/02/18 09:41:54;;;;;;;3.63;1.10;;;;;;;5.60;66.49;101021.44;4953444;28;20038;-69
2023/02/18 09:44:41;;;;;;;3.28;1.90;;;;;;;6.19;64.82;101028.16;4950434;28;20047;-69
2023/02/18 09:47:30;;;;;;;5.10;1.35;;;;;;;6.00;65.04;101023.34;4954011;28;20031;-69
2023/02/18 09:50:02;;;;;;;5.95;1.13;;;;;;;5.97;65.57;101027.72;4952444;28;20233;-69
2023/02/18 09:52:29;;;;;;;;;;;;;;;5.73;66.02;101019.50;4983338;28;20053;-69
2023/02/18 09:54:55;;;;;;;1.92;1.02;;;;;;;5.51;66.94;101028.53;4951150;28;19980;-68
2023/02/18 09:57:31;;;;;;;3.42;1.50;;;;;;;5.49;67.30;101020.78;4952950;28;20058;-67
2023/02/18 10:00:06;;;;;;;5.43;0.77;;;;;;;5.51;66.70;101037.16;4951557;28;20088;-68
2023/02/18 10:02:39;;;;;;;4.93;0.95;;;;;;;5.55;66.58;101020.69;4950199;28;20053;-69
2023/02/18 10:05:05;;;;;;;3.85;0.70;;;;;;;5.49;66.67;101051.88;4954661;28;20046;-68
2023/02/18 10:07:33;;;;;;;3.25;0.70;;;;;;;6.10;64.34;101029.19;4949167;28;20384;-72
2023/02/18 10:10:14;;;;;;;3.40;0.60;;;;;;;5.46;66.77;101005.28;4953999;28;20074;-68
2023/02/18 10:12:41;;;;;;;5.10;0.55;;;;;;;5.56;66.38;101022.38;4950986;28;20103;-71
2023/02/18 10:15:26;;;;;;;6.97;0.65;;;;;;;5.63;65.71;101008.41;4952875;28;20042;-69
2023/02/18 10:17:52;;;;;;;2.28;0.35;;;;;;;5.20;67.40;101018.63;4951466;28;20313;-71
2023/02/18 10:20:24;;;;;;;3.67;0.68;;;;;;;5.11;67.55;101034.31;4951330;28;20586;-70
2023/02/18 10:22:51;;;;;;;5.97;0.88;;;;;;;5.70;66.03;101018.69;4951472;28;20062;-71
2023/02/18 10:25:20;;;;;;;2.70;0.60;;;;;;;5.62;65.76;100992.91;4951822;28;20170;-68
2023/02/18 10:27:48;;;;;;;12.07;0.60;;;;;;;5.62;66.09;101005.88;4966678;28;20038;-68
2023/02/18 10:30:13;;;;;;;1.70;0.32;;;;;;;5.80;65.44;101013.31;4955302;28;20210;-68
2023/02/18 10:32:42;;;;;;;6.75;1.23;;;;;;;5.98;65.09;101022.50;4951818;28;20476;-69
2023/02/18 10:35:43;;;;;;;3.28;0.55;;;;;;;6.02;64.80;101018.13;4956123;28;20134;-69
2023/02/18 10:38:24;;;;;;;5.18;0.70;;;;;;;5.65;66.47;101032.59;4960637;28;20137;-68
2023/02/18 10:41:11;;;;;;;8.25;0.88;;;;;;;6.26;63.89;101024.56;4967691;28;20109;-69
2023/02/18 10:44:11;;;;;;;5.22;0.70;;;;;;;5.62;65.81;101032.66;4955462;28;20038;-68
2023/02/18 10:46:44;;;;;;;5.88;1.02;;;;;;;4.92;67.13;101011.28;4948528;28;20122;-69
2023/02/18 10:49:50;;;;;;;12.90;1.52;;;;;;;5.58;65.43;101015.44;4952135;28;20549;-68
2023/02/18 10:52:18;;;;;;;13.32;2.30;;;;;;;5.48;66.18;101039.81;4930229;28;20050;-70
2023/02/18 10:55:08;;;;;;;16.48;2.30;;;;;;;5.86;64.74;101043.50;4949887;28;20073;-67
2023/02/18 10:57:34;;;;;;;14.65;1.70;;;;;;;5.62;64.69;101037.00;4949604;28;20038;-66
2023/02/18 11:00:11;;;;;;;16.65;1.63;;;;;;;5.41;65.24;101033.00;4956187;28;20101;-67
2023/02/18 11:02:38;;;;;;;13.63;1.48;;;;;;;5.34;65.52;101052.97;4952364;28;20031;-71
2023/02/18 11:05:22;;;;;;;13.82;1.33;;;;;;;5.81;64.28;101050.47;4963159;28;20925;-67
2023/02/18 11:07:52;;;;;;;11.40;1.33;;;;;;;6.07;63.54;101060.41;4963424;28;20202;-67
2023/02/18 11:10:23;;;;;;;8.55;1.58;;;;;;;6.04;62.98;101056.13;4954485;28;20045;-67
2023/02/18 11:12:54;;;;;;;8.43;1.45;;;;;;;6.17;62.52;101048.09;4963490;28;20049;-69
2023/02/18 11:15:24;;;;;;;10.18;1.52;;;;;;;6.62;61.28;101054.19;4955499;28;20034;-68
2023/02/18 11:17:53;;;;;;;14.10;1.63;;;;;;;5.85;63.36;101052.16;4953092;28;20051;-68
2023/02/18 11:20:36;;;;;;;14.57;1.92;;;;;;;5.52;64.04;101045.78;4955362;28;20505;-67
2023/02/18 11:23:04;;;;;;;28.88;2.78;;;;;;;6.40;61.32;101061.53;4955204;28;20054;-69
2023/02/18 11:25:33;;;;;;;9.27;1.70;;;;;;;6.33;61.54;101052.19;4953415;28;20065;-69
2023/02/18 11:28:08;;;;;;;16.98;1.75;;;;;;;6.22;61.60;101054.09;4954835;28;20456;-67
2023/02/18 11:30:43;;;;;;;13.18;2.03;;;;;;;6.30;61.42;101065.19;4955900;28;20042;-67
2023/02/18 11:33:18;;;;;;;12.30;1.55;;;;;;;6.17;61.62;101055.88;4956993;28;20128;-68
2023/02/18 11:35:52;;;;;;;13.40;1.55;;;;;;;6.31;61.14;101079.91;4953993;28;20050;-69
2023/02/18 11:38:46;;;;;;;13.88;2.05;;;;;;;5.60;62.46;101065.53;4951709;28;20046;-66